Terminal Aerodrome Forecast
Issued by NWS

Home | Current Version | Previous Version | Text Only | Print | Product List | Glossary On
Versions: 1 2 3 4 5 6 7 8 9 10 11 12 13
000
FTUS44 KJAN 030520
TAFHKS
TAF
KHKS 030520Z 0306/0406 12003KT P6SM FEW200
     FM031000 00000KT 6SM BR SKC
     FM031330 18005KT P6SM SCT070=

USA.gov is the U.S. government's official web portal to all federal, state and local government web resources and services.